Cloverdale, Michigan
Current Conditions -  °F | °C
As of 9:53 AM on Friday 28 Nov 2014 (Local Time) from KBTL Reporting Station
Overcast Overcast  
Wind Chill: 14°   Ceiling: 6500
Heat Index: 24°   Visibility: 10mi
Dew Point: 15°   Wind: 10mph
Humidity: 69%   Direction: 220°SW
Pressure: 30.29"   Gusts: NA
Location:  42.56°N, 85.43°W
Report Text: KBTL 281453Z 22009KT 10SM OVC065 M04/M09 A3029 RMK AO2 SLP270 T10441094 55002 $
Loading
Personal Weather Stations






























Interactive Weather Map New forecast layout! Learn more

10-Day Weather Forecast

Advertisements
Track Severe Weather on mobile